createdAt,value
2023-03-27T00:01:02.488Z,99058.92
2023-03-27T00:06:03.396Z,99058.19
2023-03-27T00:10:57.340Z,99055.88
2023-03-27T00:15:53.943Z,99052.95
2023-03-27T00:20:46.777Z,99048.96
2023-03-27T00:25:40.935Z,99050.43
2023-03-27T00:30:33.860Z,99051.91
2023-03-27T00:35:29.817Z,99051.69
2023-03-27T00:40:23.304Z,99047.70
2023-03-27T00:45:21.930Z,99038.81
2023-03-27T00:50:21.710Z,99034.69
2023-03-27T00:55:20.146Z,99034.86
2023-03-27T01:00:17.123Z,99032.13
2023-03-27T01:05:11.617Z,99023.45
2023-03-27T01:10:06.997Z,99021.05
2023-03-27T01:15:18.595Z,99021.65
2023-03-27T01:20:47.136Z,99027.52
2023-03-27T01:25:58.873Z,99039.73
2023-03-27T01:30:59.867Z,99045.13
2023-03-27T01:36:14.922Z,99043.01
2023-03-27T01:41:35.382Z,99042.96
2023-03-27T01:46:36.888Z,99049.88
2023-03-27T01:51:39.604Z,99049.14
2023-03-27T01:56:39.488Z,99044.65
2023-03-27T02:01:39.737Z,99052.08
2023-03-27T02:06:38.987Z,99058.77
2023-03-27T02:11:38.020Z,99057.27
2023-03-27T02:16:35.706Z,99059.01
2023-03-27T02:21:31.529Z,99058.16
2023-03-27T02:26:25.407Z,99054.87
2023-03-27T02:31:37.529Z,99045.58
2023-03-27T02:36:55.451Z,99049.96
2023-03-27T02:42:04.525Z,99057.02
2023-03-27T02:47:29.088Z,99059.30
2023-03-27T02:52:29.512Z,99055.80
2023-03-27T02:57:28.009Z,99059.31
2023-03-27T03:02:41.405Z,99059.97
2023-03-27T03:07:36.274Z,99060.13
2023-03-27T03:12:29.106Z,99057.02
2023-03-27T03:17:22.268Z,99054.29
2023-03-27T03:22:15.613Z,99048.39
2023-03-27T03:27:08.856Z,99046.41
2023-03-27T03:32:23.425Z,99043.25
2023-03-27T03:37:17.629Z,99046.91
2023-03-27T03:42:22.895Z,99041.71
2023-03-27T03:47:18.371Z,99042.08
2023-03-27T03:52:11.233Z,99040.75
2023-03-27T03:57:05.020Z,99041.31
2023-03-27T04:01:59.436Z,99041.70
2023-03-27T04:06:58.494Z,99044.62
2023-03-27T04:11:54.926Z,99051.67
2023-03-27T04:17:09.696Z,99061.77
2023-03-27T04:22:03.588Z,99068.73
2023-03-27T04:27:01.338Z,99073.16
2023-03-27T04:32:09.653Z,99077.70
2023-03-27T04:37:05.744Z,99080.52
2023-03-27T04:41:59.540Z,99085.39
2023-03-27T04:46:53.776Z,99088.80
2023-03-27T04:51:48.202Z,99086.14
2023-03-27T04:56:43.048Z,99092.06
2023-03-27T05:01:36.419Z,99086.10
2023-03-27T05:06:47.436Z,99092.80
2023-03-27T05:11:42.487Z,99094.98
2023-03-27T05:16:36.235Z,99091.89
2023-03-27T05:21:31.029Z,99084.63
2023-03-27T05:26:24.074Z,99085.21
2023-03-27T05:31:22.479Z,99088.82
2023-03-27T05:36:23.289Z,99097.56
2023-03-27T05:41:16.980Z,99109.80
2023-03-27T05:46:13.645Z,99110.20
2023-03-27T05:51:18.805Z,99107.36
2023-03-27T05:56:14.454Z,99109.34
2023-03-27T06:01:18.947Z,99109.88
2023-03-27T06:06:13.812Z,99118.66
2023-03-27T06:11:13.554Z,99122.10
2023-03-27T06:16:15.689Z,99127.58
2023-03-27T06:21:08.671Z,99125.00
2023-03-27T06:26:02.108Z,99126.08
2023-03-27T06:30:58.240Z,99130.30
2023-03-27T06:36:00.847Z,99139.61
2023-03-27T06:40:59.787Z,99147.51
2023-03-27T06:46:07.128Z,99147.59
2023-03-27T06:51:27.140Z,99151.41
2023-03-27T06:56:20.396Z,99154.08
2023-03-27T07:01:32.523Z,99154.04
2023-03-27T07:06:40.685Z,99153.11
2023-03-27T07:11:36.209Z,99151.89
2023-03-27T07:16:33.963Z,99155.40
2023-03-27T07:21:26.902Z,99169.88
2023-03-27T07:26:22.973Z,99178.29
2023-03-27T07:36:45.070Z,99175.16
2023-03-27T07:41:38.316Z,99175.17
2023-03-27T07:46:53.731Z,99174.96
2023-03-27T07:51:47.468Z,99170.34
2023-03-27T07:56:43.070Z,99172.09
2023-03-27T08:01:54.397Z,99184.65
2023-03-27T08:06:51.570Z,99186.39
2023-03-27T08:11:46.843Z,99193.85
2023-03-27T08:16:41.908Z,99203.04
2023-03-27T08:21:35.515Z,99213.63
2023-03-27T08:26:28.912Z,99217.01
2023-03-27T08:31:24.226Z,99224.45
2023-03-27T08:36:20.186Z,99233.83
2023-03-27T08:41:30.800Z,99242.86
2023-03-27T08:46:59.339Z,99242.02
2023-03-27T08:51:56.949Z,99240.05
2023-03-27T08:56:51.702Z,99242.69
2023-03-27T09:01:59.924Z,99245.02
2023-03-27T09:07:08.274Z,99246.60
2023-03-27T09:12:40.548Z,99250.22
2023-03-27T09:17:40.559Z,99252.98
2023-03-27T09:22:45.001Z,99255.38
2023-03-27T09:27:45.843Z,99267.75
2023-03-27T09:33:03.635Z,99265.92
2023-03-27T09:38:03.725Z,99273.90
2023-03-27T09:43:01.290Z,99287.69
2023-03-27T09:47:58.157Z,99290.71
2023-03-27T09:52:55.310Z,99300.71
2023-03-27T09:58:16.886Z,99295.45
2023-03-27T10:03:19.826Z,99302.84
2023-03-27T10:08:27.292Z,99303.70
2023-03-27T10:13:37.468Z,99308.92
2023-03-27T10:18:33.143Z,99321.10
2023-03-27T10:23:44.294Z,99321.01
2023-03-27T10:28:54.133Z,99326.44
2023-03-27T10:33:51.186Z,99333.27
2023-03-27T10:39:15.480Z,99338.99
2023-03-27T10:44:29.179Z,99344.30
2023-03-27T10:49:34.687Z,99347.11
2023-03-27T10:54:43.890Z,99346.27
2023-03-27T11:00:07.580Z,99348.48
2023-03-27T11:05:36.461Z,99347.80
2023-03-27T11:10:42.141Z,99350.55
2023-03-27T11:15:43.473Z,99354.80
2023-03-27T11:21:28.722Z,99353.52
2023-03-27T11:26:39.626Z,99356.67
2023-03-27T11:31:46.523Z,99363.98
2023-03-27T11:36:57.452Z,99356.73
2023-03-27T11:42:05.342Z,99351.98
2023-03-27T11:47:29.958Z,99343.80
2023-03-27T11:53:01.508Z,99361.79
2023-03-27T11:58:33.176Z,99363.90
2023-03-27T12:04:00.250Z,99372.33
2023-03-27T12:09:27.816Z,99366.11
2023-03-27T12:15:14.012Z,99363.35
2023-03-27T12:20:52.762Z,99370.63
2023-03-27T12:26:27.382Z,99366.95
2023-03-27T12:31:49.458Z,99370.16
2023-03-27T12:36:48.337Z,99374.46
2023-03-27T12:41:45.682Z,99377.59
2023-03-27T12:47:18.271Z,99380.20
2023-03-27T12:52:12.995Z,99386.02
2023-03-27T12:57:19.324Z,99388.05
2023-03-27T13:02:16.766Z,99388.17
2023-03-27T13:07:44.841Z,99398.48
2023-03-27T13:13:00.745Z,99400.66
2023-03-27T13:18:43.193Z,99404.64
2023-03-27T13:24:00.710Z,99412.58
2023-03-27T13:28:56.674Z,99416.75
2023-03-27T13:34:12.470Z,99413.29
2023-03-27T13:39:08.033Z,99419.55
2023-03-27T13:44:02.322Z,99422.45
2023-03-27T13:49:27.346Z,99424.88
2023-03-27T13:54:47.724Z,99437.50
2023-03-27T13:59:53.032Z,99453.53
2023-03-27T14:05:43.730Z,99463.54
2023-03-27T14:11:01.336Z,99482.40
2023-03-27T14:16:13.686Z,99497.14
2023-03-27T14:21:13.873Z,99505.42
2023-03-27T14:26:21.498Z,99507.91
2023-03-27T14:31:19.105Z,99501.39
2023-03-27T14:36:30.281Z,99511.13
2023-03-27T14:41:25.686Z,99517.14
2023-03-27T14:46:24.422Z,99530.16
2023-03-27T14:51:21.858Z,99537.20
2023-03-27T14:56:37.933Z,99549.68
2023-03-27T15:01:55.822Z,99561.98
2023-03-27T15:06:50.209Z,99577.14
2023-03-27T15:12:04.297Z,99591.55
2023-03-27T15:17:09.369Z,99597.78
2023-03-27T15:22:07.740Z,99614.35
2023-03-27T15:27:02.026Z,99626.46
2023-03-27T15:31:59.846Z,99634.61
2023-03-27T15:37:00.455Z,99650.62
2023-03-27T15:41:57.193Z,99657.70
2023-03-27T15:46:54.421Z,99670.00
2023-03-27T15:51:47.294Z,99684.66
2023-03-27T15:56:44.707Z,99687.41
2023-03-27T16:01:44.197Z,99698.70
2023-03-27T16:06:41.048Z,99705.69
2023-03-27T16:11:45.911Z,99700.17
2023-03-27T16:16:38.751Z,99708.04
2023-03-27T16:21:36.238Z,99717.57
2023-03-27T16:26:31.837Z,99732.70
2023-03-27T16:31:24.881Z,99750.93
2023-03-27T16:36:21.475Z,99762.88
2023-03-27T16:41:16.167Z,99778.52
2023-03-27T16:46:18.339Z,99788.93
2023-03-27T16:51:11.352Z,99798.80
2023-03-27T16:56:05.211Z,99813.90
2023-03-27T17:00:58.547Z,99817.94
2023-03-27T17:05:51.946Z,99828.91
2023-03-27T17:10:45.900Z,99834.64
2023-03-27T17:15:40.408Z,99840.23
2023-03-27T17:20:33.393Z,99850.72
2023-03-27T17:25:26.558Z,99861.55
2023-03-27T17:30:30.662Z,99868.64
2023-03-27T17:35:27.923Z,99876.94
2023-03-27T17:40:20.736Z,99882.40
2023-03-27T17:45:13.549Z,99880.77
2023-03-27T17:50:07.002Z,99884.14
2023-03-27T17:55:00.035Z,99900.13
2023-03-27T17:59:52.957Z,99910.92
2023-03-27T18:04:47.982Z,99909.96
2023-03-27T18:09:40.798Z,99922.27
2023-03-27T18:14:33.659Z,99922.39
2023-03-27T18:19:26.523Z,99930.61
2023-03-27T18:24:19.466Z,99935.95
2023-03-27T18:29:12.463Z,99945.08
2023-03-27T18:34:05.265Z,99953.63
2023-03-27T18:38:58.646Z,99960.69
2023-03-27T18:43:51.492Z,99968.70
2023-03-27T18:48:45.624Z,99979.73
2023-03-27T18:53:38.441Z,99988.37
2023-03-27T18:58:31.276Z,99992.83
2023-03-27T19:03:25.957Z,99991.03
2023-03-27T19:08:20.066Z,99990.20
2023-03-27T19:13:12.990Z,99997.35
2023-03-27T19:18:30.089Z,100004.04
2023-03-27T19:23:41.511Z,100007.42
2023-03-27T19:28:34.354Z,100010.15
2023-03-27T19:33:28.207Z,100015.35
2023-03-27T19:38:21.617Z,100012.23
2023-03-27T19:43:15.803Z,100013.29
2023-03-27T19:48:08.924Z,100023.06
2023-03-27T19:53:08.757Z,100027.80
2023-03-27T19:58:02.106Z,100028.73
2023-03-27T20:02:55.155Z,100034.67
2023-03-27T20:07:48.009Z,100038.52
2023-03-27T20:12:41.321Z,100043.80
2023-03-27T20:17:34.590Z,100051.21
2023-03-27T20:22:29.727Z,100055.31
2023-03-27T20:27:23.186Z,100057.00
2023-03-27T20:32:16.353Z,100061.95
2023-03-27T20:37:12.157Z,100067.00
2023-03-27T20:42:31.072Z,100067.80
2023-03-27T20:47:23.909Z,100065.44
2023-03-27T20:52:22.937Z,100063.56
2023-03-27T20:57:16.225Z,100064.44
2023-03-27T21:02:16.841Z,100069.42
2023-03-27T21:07:09.758Z,100069.95
2023-03-27T21:12:02.912Z,100070.97
2023-03-27T21:16:55.916Z,100065.29
2023-03-27T21:21:49.878Z,100066.90
2023-03-27T21:26:42.984Z,100069.05
2023-03-27T21:31:36.157Z,100068.05
2023-03-27T21:36:29.881Z,100080.05
2023-03-27T21:41:23.910Z,100076.79
2023-03-27T21:46:17.421Z,100074.11
2023-03-27T21:51:10.412Z,100069.27
2023-03-27T21:56:03.864Z,100065.08
2023-03-27T22:00:58.348Z,100066.52
2023-03-27T22:05:57.775Z,100061.83
2023-03-27T22:10:59.537Z,100060.65
2023-03-27T22:15:52.434Z,100069.91
2023-03-27T22:20:45.261Z,100072.20
2023-03-27T22:25:38.047Z,100076.22
2023-03-27T22:30:30.920Z,100078.82
2023-03-27T22:35:23.815Z,100088.07
2023-03-27T22:40:16.773Z,100086.71
2023-03-27T22:45:10.489Z,100086.36
2023-03-27T22:50:05.513Z,100085.30
2023-03-27T22:54:58.288Z,100080.91
2023-03-27T22:59:51.409Z,100082.02
2023-03-27T23:04:44.232Z,100080.79
2023-03-27T23:09:37.198Z,100080.74
2023-03-27T23:14:30.002Z,100087.41
2023-03-27T23:19:22.831Z,100092.73
2023-03-27T23:24:15.988Z,100094.51
2023-03-27T23:29:08.958Z,100105.98
2023-03-27T23:34:01.828Z,100115.73
2023-03-27T23:38:56.623Z,100116.17
2023-03-27T23:43:49.547Z,100116.11
2023-03-27T23:48:44.443Z,100117.45
2023-03-27T23:53:37.871Z,100121.48
2023-03-27T23:58:32.747Z,100128.39
